Archival Weather

Abadan

Abadan, Iran (OIAA)

Report from: Thursday, September 21, 2023 4:00 AM UTC
Current time: Sunday, February 25, 2024 9:47 PM UTC

Current weather – Weather history – Daily summaries
Weather forecast

Temperature25.0°C (77.0°F)
Dew point9.0°C (48.2°F)
Winds Calm
Visibility4.3 mi. (7 km)
Altimeter29.71 in.Hg (1006 mB)
Relative humidity36 %
Density altitude1,567 ft. (478 m)
Flight conditions Marginal Visual Meteorological Conditions
Raw dataOIAA 210400Z 00000KT 7000 NSC 25/09 Q1006
An error has occurred. This application may no longer respond until reloaded. Reload 🗙